AAL1247 KRDU-KLGA
Flight info
| Callsign | AAL1247 |
|---|---|
| Flight time | N/A |
| Altitude | 35000 |
| Route | BEXGO5 BOUSY GEARS Q87 HURTS PROUD2 |
| Aircraft | B738/M-SDE2E3FGHIRWXY/LB1 |
Departure
| Time | 2026-05-07 01:32 |
|---|---|
| Airport | Raleigh-Durham International Airport (KRDU) |
Arrival
| Time | N/A |
|---|---|
| Airport | LaGuardia Airport (KLGA) |
| Time | Latitude | Longitude | Altitude | Speed | Heading |
|---|---|---|---|---|---|
| 2026-05-07 01:01 | 35.87931 | -78.79199 | 421 ft | 0 kts | 134° |
| 2026-05-07 01:22 | 35.87931 | -78.79200 | 425 ft | 1 kts | 134° |
| 2026-05-07 01:22 | 35.87940 | -78.79212 | 416 ft | 3 kts | 120° |
| 2026-05-07 01:22 | 35.87946 | -78.79232 | 417 ft | 3 kts | 79° |
| 2026-05-07 01:23 | 35.87939 | -78.79250 | 418 ft | 3 kts | 30° |
| 2026-05-07 01:23 | 35.87938 | -78.79250 | 418 ft | 0 kts | 28° |
| 2026-05-07 01:25 | 35.87954 | -78.79241 | 424 ft | 6 kts | 26° |
| 2026-05-07 01:25 | 35.87998 | -78.79220 | 423 ft | 7 kts | 36° |
| 2026-05-07 01:25 | 35.88045 | -78.79164 | 425 ft | 13 kts | 45° |
| 2026-05-07 01:25 | 35.88118 | -78.79071 | 415 ft | 16 kts | 50° |
| 2026-05-07 01:26 | 35.88201 | -78.78966 | 414 ft | 18 kts | 45° |
| 2026-05-07 01:26 | 35.88288 | -78.78858 | 423 ft | 17 kts | 45° |
| 2026-05-07 01:26 | 35.88377 | -78.78748 | 423 ft | 18 kts | 44° |
| 2026-05-07 01:26 | 35.88465 | -78.78640 | 426 ft | 18 kts | 45° |
| 2026-05-07 01:27 | 35.88550 | -78.78535 | 422 ft | 17 kts | 45° |
| 2026-05-07 01:27 | 35.88632 | -78.78434 | 421 ft | 16 kts | 45° |
| 2026-05-07 01:27 | 35.88710 | -78.78337 | 420 ft | 16 kts | 45° |
| 2026-05-07 01:27 | 35.88799 | -78.78227 | 415 ft | 19 kts | 45° |
| 2026-05-07 01:28 | 35.88891 | -78.78115 | 418 ft | 18 kts | 45° |
| 2026-05-07 01:28 | 35.88974 | -78.78000 | 413 ft | 18 kts | 63° |
| 2026-05-07 01:28 | 35.89026 | -78.77867 | 420 ft | 17 kts | 47° |
| 2026-05-07 01:28 | 35.89108 | -78.77765 | 419 ft | 16 kts | 45° |
| 2026-05-07 01:29 | 35.89187 | -78.77666 | 420 ft | 16 kts | 45° |
| 2026-05-07 01:29 | 35.89262 | -78.77680 | 421 ft | 12 kts | 316° |
| 2026-05-07 01:29 | 35.89293 | -78.77717 | 423 ft | 0 kts | 316° |
| 2026-05-07 01:30 | 35.89326 | -78.77758 | 428 ft | 14 kts | 316° |
| 2026-05-07 01:31 | 35.89322 | -78.77883 | 417 ft | 18 kts | 226° |
| 2026-05-07 01:31 | 35.89132 | -78.78117 | 424 ft | 77 kts | 225° |
| 2026-05-07 01:31 | 35.88562 | -78.78817 | 424 ft | 152 kts | 224° |
| 2026-05-07 01:31 | 35.87684 | -78.79889 | 768 ft | 192 kts | 224° |
| 2026-05-07 01:32 | 35.86740 | -78.81029 | 1757 ft | 185 kts | 225° |
| 2026-05-07 01:32 | 35.85813 | -78.82147 | 1934 ft | 194 kts | 225° |
| 2026-05-07 01:32 | 35.84776 | -78.83398 | 1987 ft | 221 kts | 225° |
| 2026-05-07 01:32 | 35.83659 | -78.84740 | 1959 ft | 226 kts | 225° |
| 2026-05-07 01:33 | 35.82492 | -78.86145 | 2203 ft | 242 kts | 225° |
| 2026-05-07 01:33 | 35.81292 | -78.87579 | 3260 ft | 237 kts | 226° |
| 2026-05-07 01:33 | 35.80363 | -78.89246 | 4112 ft | 239 kts | 252° |
| 2026-05-07 01:33 | 35.80267 | -78.91227 | 5092 ft | 241 kts | 279° |
| 2026-05-07 01:34 | 35.80987 | -78.93120 | 5662 ft | 252 kts | 304° |
| 2026-05-07 01:34 | 35.82176 | -78.94697 | 5965 ft | 257 kts | 310° |
| 2026-05-07 01:34 | 35.83472 | -78.96267 | 5989 ft | 258 kts | 310° |
| 2026-05-07 01:34 | 35.84750 | -78.97788 | 6131 ft | 261 kts | 310° |
| 2026-05-07 01:35 | 35.86064 | -78.99344 | 6892 ft | 261 kts | 310° |
| 2026-05-07 01:35 | 35.87329 | -79.00833 | 7786 ft | 261 kts | 311° |
| 2026-05-07 01:35 | 35.88689 | -79.02342 | 8577 ft | 269 kts | 320° |
| 2026-05-07 01:35 | 35.90533 | -79.03053 | 9304 ft | 294 kts | 354° |
| 2026-05-07 01:36 | 35.92569 | -79.02481 | 10112 ft | 309 kts | 18° |
| 2026-05-07 01:36 | 35.94476 | -79.01088 | 10523 ft | 335 kts | 35° |
| 2026-05-07 01:36 | 35.96148 | -78.98911 | 10701 ft | 364 kts | 49° |
| 2026-05-07 01:36 | 35.97660 | -78.96301 | 11001 ft | 382 kts | 53° |
| 2026-05-07 01:37 | 35.99126 | -78.93521 | 11620 ft | 389 kts | 55° |
| 2026-05-07 01:37 | 36.00565 | -78.90745 | 11969 ft | 390 kts | 54° |
| 2026-05-07 01:37 | 36.02036 | -78.87937 | 11981 ft | 390 kts | 54° |
| 2026-05-07 01:37 | 36.03528 | -78.85134 | 11990 ft | 390 kts | 54° |
| 2026-05-07 01:38 | 36.05033 | -78.82342 | 11989 ft | 390 kts | 53° |
| 2026-05-07 01:38 | 36.06547 | -78.79558 | 11989 ft | 390 kts | 53° |
| 2026-05-07 01:38 | 36.08075 | -78.76761 | 12208 ft | 395 kts | 53° |
| 2026-05-07 01:38 | 36.09622 | -78.73934 | 12923 ft | 397 kts | 53° |
| 2026-05-07 01:39 | 36.11167 | -78.71109 | 13743 ft | 397 kts | 53° |
| 2026-05-07 01:39 | 36.12719 | -78.68269 | 14354 ft | 401 kts | 52° |
| 2026-05-07 01:39 | 36.14297 | -78.65383 | 14896 ft | 407 kts | 52° |
| 2026-05-07 01:39 | 36.15890 | -78.62463 | 15484 ft | 411 kts | 52° |
| 2026-05-07 01:40 | 36.17477 | -78.59553 | 16059 ft | 416 kts | 52° |
| 2026-05-07 01:40 | 36.19100 | -78.56572 | 16630 ft | 420 kts | 51° |
| 2026-05-07 01:40 | 36.20743 | -78.53550 | 17148 ft | 427 kts | 51° |
| 2026-05-07 01:40 | 36.22418 | -78.50470 | 17603 ft | 434 kts | 51° |
| 2026-05-07 01:41 | 36.24107 | -78.47357 | 18222 ft | 437 kts | 51° |
| 2026-05-07 01:41 | 36.25806 | -78.44224 | 18743 ft | 440 kts | 51° |
| 2026-05-07 01:41 | 36.27589 | -78.41150 | 19244 ft | 438 kts | 42° |
| 2026-05-07 01:41 | 36.29872 | -78.38737 | 19737 ft | 429 kts | 29° |
| 2026-05-07 01:42 | 36.32301 | -78.36570 | 20262 ft | 432 kts | 29° |
| 2026-05-07 01:42 | 36.34748 | -78.34379 | 20763 ft | 436 kts | 29° |
| 2026-05-07 01:42 | 36.37205 | -78.32147 | 21238 ft | 440 kts | 30° |
| 2026-05-07 01:42 | 36.39637 | -78.29905 | 21710 ft | 443 kts | 30° |
| 2026-05-07 01:43 | 36.42112 | -78.27601 | 22190 ft | 447 kts | 30° |
| 2026-05-07 01:43 | 36.44607 | -78.25268 | 22563 ft | 452 kts | 30° |
| 2026-05-07 01:43 | 36.47128 | -78.22909 | 23005 ft | 455 kts | 30° |
| 2026-05-07 01:43 | 36.49616 | -78.20582 | 23471 ft | 457 kts | 30° |
| 2026-05-07 01:44 | 36.52162 | -78.18194 | 23854 ft | 460 kts | 30° |
| 2026-05-07 01:44 | 36.54722 | -78.15785 | 24199 ft | 463 kts | 30° |
| 2026-05-07 01:44 | 36.57300 | -78.13355 | 24601 ft | 466 kts | 30° |
| 2026-05-07 01:44 | 36.59887 | -78.10912 | 24957 ft | 469 kts | 30° |
| 2026-05-07 01:45 | 36.62495 | -78.08447 | 25303 ft | 472 kts | 30° |
| 2026-05-07 01:45 | 36.64233 | -78.06803 | 25550 ft | 475 kts | 30° |
| 2026-05-07 01:45 | 36.66883 | -78.04296 | 25775 ft | 481 kts | 30° |
| 2026-05-07 01:45 | 36.70424 | -78.00942 | 26194 ft | 485 kts | 30° |
| 2026-05-07 01:46 | 36.73022 | -77.98476 | 26534 ft | 486 kts | 30° |
| 2026-05-07 01:46 | 36.75722 | -77.95911 | 26863 ft | 489 kts | 30° |
| 2026-05-07 01:46 | 36.78430 | -77.93338 | 27193 ft | 490 kts | 31° |
| 2026-05-07 01:46 | 36.81140 | -77.90734 | 27507 ft | 494 kts | 34° |
| 2026-05-07 01:47 | 36.82787 | -77.88738 | 27659 ft | 506 kts | 46° |
| 2026-05-07 01:47 | 36.84874 | -77.85165 | 27949 ft | 511 kts | 52° |
| 2026-05-07 01:47 | 36.86867 | -77.81461 | 28146 ft | 517 kts | 53° |
| 2026-05-07 01:47 | 36.88863 | -77.77702 | 28385 ft | 521 kts | 53° |
| 2026-05-07 01:48 | 36.90884 | -77.73934 | 28680 ft | 523 kts | 52° |
| 2026-05-07 01:48 | 36.92933 | -77.70176 | 28997 ft | 524 kts | 52° |
| 2026-05-07 01:48 | 36.95001 | -77.66430 | 29285 ft | 526 kts | 51° |
| 2026-05-07 01:48 | 36.97094 | -77.62667 | 29521 ft | 528 kts | 51° |
| 2026-05-07 01:49 | 36.99200 | -77.58885 | 29745 ft | 531 kts | 52° |
| 2026-05-07 01:49 | 37.01305 | -77.55098 | 30072 ft | 531 kts | 52° |
| 2026-05-07 01:49 | 37.03410 | -77.51300 | 30390 ft | 531 kts | 51° |
| 2026-05-07 01:49 | 37.05486 | -77.47547 | 30701 ft | 532 kts | 51° |
| 2026-05-07 01:50 | 37.07602 | -77.43717 | 30754 ft | 538 kts | 51° |
| 2026-05-07 01:50 | 37.09766 | -77.39864 | 30862 ft | 541 kts | 47° |
| 2026-05-07 01:50 | 37.12204 | -77.36331 | 31153 ft | 533 kts | 38° |
| 2026-05-07 01:50 | 37.14865 | -77.33126 | 31582 ft | 527 kts | 36° |
| 2026-05-07 01:51 | 37.17535 | -77.30001 | 31999 ft | 524 kts | 34° |
| 2026-05-07 01:51 | 37.20200 | -77.26889 | 32320 ft | 523 kts | 34° |
| 2026-05-07 01:51 | 37.22852 | -77.23763 | 32562 ft | 525 kts | 34° |
| 2026-05-07 01:51 | 37.25498 | -77.20607 | 32886 ft | 523 kts | 35° |
| 2026-05-07 01:52 | 37.28118 | -77.17448 | 33279 ft | 521 kts | 34° |
| 2026-05-07 01:52 | 37.30736 | -77.14280 | 33480 ft | 523 kts | 34° |
| 2026-05-07 01:52 | 37.33355 | -77.11105 | 33696 ft | 525 kts | 34° |
| 2026-05-07 01:52 | 37.35943 | -77.07963 | 33995 ft | 523 kts | 33° |
| 2026-05-07 01:53 | 37.38557 | -77.04788 | 34296 ft | 521 kts | 33° |
| 2026-05-07 01:53 | 37.41160 | -77.01625 | 34599 ft | 519 kts | 33° |
| 2026-05-07 01:53 | 37.43676 | -76.98570 | 34852 ft | 518 kts | 33° |
| 2026-05-07 01:54 | 37.49266 | -76.93180 | 34949 ft | 493 kts | 14° |
| 2026-05-07 01:54 | 37.55413 | -76.89272 | 34908 ft | 496 kts | 13° |
| 2026-05-07 01:55 | 37.61573 | -76.85283 | 34913 ft | 499 kts | 14° |
| 2026-05-07 01:55 | 37.67675 | -76.81221 | 34917 ft | 499 kts | 15° |
| 2026-05-07 01:56 | 37.73790 | -76.77119 | 34913 ft | 497 kts | 15° |
| 2026-05-07 01:56 | 37.79896 | -76.73024 | 34896 ft | 496 kts | 15° |
| 2026-05-07 01:57 | 37.85979 | -76.68942 | 34896 ft | 494 kts | 15° |
| 2026-05-07 01:57 | 37.92069 | -76.64961 | 34902 ft | 491 kts | 13° |
| 2026-05-07 01:58 | 37.98176 | -76.61134 | 34898 ft | 490 kts | 13° |
| 2026-05-07 01:58 | 38.04235 | -76.57323 | 34888 ft | 490 kts | 13° |
| 2026-05-07 01:59 | 38.10329 | -76.53453 | 34891 ft | 490 kts | 13° |
| 2026-05-07 01:59 | 38.16439 | -76.49559 | 34881 ft | 492 kts | 14° |
| 2026-05-07 02:00 | 38.22571 | -76.45641 | 34897 ft | 494 kts | 14° |
| 2026-05-07 02:00 | 38.28720 | -76.41702 | 34899 ft | 497 kts | 15° |
| 2026-05-07 02:00 | 38.31714 | -76.39368 | 34896 ft | 512 kts | 24° |
| 2026-05-07 02:01 | 38.34541 | -76.36658 | 34930 ft | 518 kts | 27° |
| 2026-05-07 02:01 | 38.40180 | -76.30856 | 34904 ft | 521 kts | 28° |
| 2026-05-07 02:02 | 38.45862 | -76.25119 | 34894 ft | 520 kts | 26° |
| 2026-05-07 02:02 | 38.51590 | -76.19497 | 34895 ft | 520 kts | 26° |
| 2026-05-07 02:03 | 38.57357 | -76.13856 | 34306 ft | 526 kts | 27° |
| 2026-05-07 02:03 | 38.60256 | -76.11004 | 33698 ft | 525 kts | 27° |
| 2026-05-07 02:03 | 38.63150 | -76.08149 | 33012 ft | 525 kts | 27° |
| 2026-05-07 02:03 | 38.66065 | -76.05345 | 32331 ft | 523 kts | 26° |
| 2026-05-07 02:04 | 38.69009 | -76.02602 | 31649 ft | 523 kts | 26° |
| 2026-05-07 02:04 | 38.71894 | -75.99946 | 30959 ft | 524 kts | 26° |
| 2026-05-07 02:04 | 38.74783 | -75.97281 | 30485 ft | 522 kts | 26° |
| 2026-05-07 02:04 | 38.77719 | -75.94555 | 29910 ft | 520 kts | 27° |
| 2026-05-07 02:05 | 38.80637 | -75.91827 | 29332 ft | 517 kts | 27° |
| 2026-05-07 02:05 | 38.83525 | -75.89115 | 28771 ft | 512 kts | 27° |
| 2026-05-07 02:05 | 38.86386 | -75.86423 | 28242 ft | 508 kts | 27° |
| 2026-05-07 02:05 | 38.89220 | -75.83756 | 27730 ft | 503 kts | 27° |
| 2026-05-07 02:06 | 38.92028 | -75.81114 | 27230 ft | 498 kts | 27° |
| 2026-05-07 02:06 | 38.94804 | -75.78501 | 26795 ft | 493 kts | 26° |
| 2026-05-07 02:06 | 38.97543 | -75.75913 | 26509 ft | 484 kts | 26° |
| 2026-05-07 02:06 | 39.00223 | -75.73372 | 26227 ft | 476 kts | 26° |
| 2026-05-07 02:07 | 39.02895 | -75.70845 | 25984 ft | 480 kts | 26° |
| 2026-05-07 02:07 | 39.08287 | -75.65756 | 25442 ft | 484 kts | 27° |
| 2026-05-07 02:07 | 39.10985 | -75.63192 | 25159 ft | 480 kts | 27° |
| 2026-05-07 02:08 | 39.13657 | -75.60647 | 24922 ft | 476 kts | 27° |
| 2026-05-07 02:08 | 39.16313 | -75.58120 | 24617 ft | 474 kts | 27° |
| 2026-05-07 02:08 | 39.18956 | -75.55606 | 24350 ft | 471 kts | 27° |
| 2026-05-07 02:08 | 39.21581 | -75.53106 | 24082 ft | 468 kts | 27° |
| 2026-05-07 02:09 | 39.24204 | -75.50618 | 23755 ft | 467 kts | 26° |
| 2026-05-07 02:09 | 39.26863 | -75.48213 | 23304 ft | 467 kts | 25° |
| 2026-05-07 02:09 | 39.29544 | -75.45860 | 22846 ft | 463 kts | 25° |
| 2026-05-07 02:09 | 39.32160 | -75.43573 | 22414 ft | 457 kts | 25° |
| 2026-05-07 02:10 | 39.34774 | -75.41278 | 22019 ft | 451 kts | 25° |
| 2026-05-07 02:10 | 39.37350 | -75.39003 | 21611 ft | 446 kts | 26° |
| 2026-05-07 02:10 | 39.39894 | -75.36746 | 21207 ft | 441 kts | 26° |
| 2026-05-07 02:10 | 39.42402 | -75.34515 | 20821 ft | 436 kts | 26° |
| 2026-05-07 02:11 | 39.44886 | -75.32302 | 20449 ft | 431 kts | 26° |
| 2026-05-07 02:11 | 39.47344 | -75.30110 | 20067 ft | 427 kts | 26° |
| 2026-05-07 02:11 | 39.49785 | -75.27932 | 19709 ft | 426 kts | 27° |
| 2026-05-07 02:11 | 39.52217 | -75.25738 | 19346 ft | 428 kts | 28° |
| 2026-05-07 02:12 | 39.54635 | -75.23485 | 18979 ft | 429 kts | 29° |
| 2026-05-07 02:12 | 39.57043 | -75.21212 | 18581 ft | 426 kts | 30° |
| 2026-05-07 02:12 | 39.59393 | -75.18989 | 18281 ft | 421 kts | 30° |
| 2026-05-07 02:12 | 39.61751 | -75.16765 | 17893 ft | 418 kts | 30° |
| 2026-05-07 02:13 | 39.64103 | -75.14554 | 17505 ft | 415 kts | 30° |
| 2026-05-07 02:13 | 39.66437 | -75.12362 | 17130 ft | 413 kts | 30° |
| 2026-05-07 02:13 | 39.68758 | -75.10201 | 16751 ft | 410 kts | 29° |
| 2026-05-07 02:13 | 39.71117 | -75.08143 | 16380 ft | 407 kts | 27° |
| 2026-05-07 02:14 | 39.73485 | -75.06140 | 16004 ft | 405 kts | 27° |
| 2026-05-07 02:14 | 39.75842 | -75.04150 | 15633 ft | 404 kts | 27° |
| 2026-05-07 02:14 | 39.78189 | -75.02152 | 15265 ft | 403 kts | 28° |
| 2026-05-07 02:14 | 39.80525 | -75.00147 | 14899 ft | 402 kts | 28° |
| 2026-05-07 02:15 | 39.82773 | -74.98207 | 14546 ft | 401 kts | 28° |
| 2026-05-07 02:15 | 39.85062 | -74.96229 | 14185 ft | 400 kts | 29° |
| 2026-05-07 02:15 | 39.87348 | -74.94185 | 13824 ft | 400 kts | 31° |
| 2026-05-07 02:15 | 39.89625 | -74.92109 | 13424 ft | 399 kts | 31° |
| 2026-05-07 02:16 | 39.91892 | -74.90032 | 13052 ft | 398 kts | 32° |
| 2026-05-07 02:16 | 39.93960 | -74.87620 | 12692 ft | 401 kts | 44° |
| 2026-05-07 02:16 | 39.95789 | -74.84902 | 12371 ft | 397 kts | 47° |
| 2026-05-07 02:16 | 39.97574 | -74.82192 | 12054 ft | 391 kts | 46° |
| 2026-05-07 02:17 | 39.99359 | -74.79549 | 11720 ft | 387 kts | 45° |
| 2026-05-07 02:17 | 40.01124 | -74.77000 | 11413 ft | 382 kts | 45° |
| 2026-05-07 02:17 | 40.02901 | -74.74457 | 11107 ft | 377 kts | 45° |
| 2026-05-07 02:17 | 40.04656 | -74.71946 | 10798 ft | 370 kts | 44° |
| 2026-05-07 02:18 | 40.06362 | -74.69499 | 10504 ft | 360 kts | 45° |
| 2026-05-07 02:18 | 40.08023 | -74.67111 | 10193 ft | 350 kts | 45° |
| 2026-05-07 02:18 | 40.09639 | -74.64787 | 9945 ft | 340 kts | 44° |
| 2026-05-07 02:18 | 40.11189 | -74.62552 | 9918 ft | 324 kts | 44° |
| 2026-05-07 02:19 | 40.12620 | -74.60491 | 9680 ft | 318 kts | 44° |